createdAt,value
2018-07-23T00:01:48.614Z,27.37
2018-07-23T00:06:51.884Z,27.60
2018-07-23T00:11:55.171Z,33.00
2018-07-23T00:16:58.171Z,31.43
2018-07-23T00:22:01.440Z,29.47
2018-07-23T00:27:04.703Z,30.13
2018-07-23T00:32:07.998Z,36.27
2018-07-23T00:37:11.329Z,30.87
2018-07-23T00:42:14.590Z,32.43
2018-07-23T00:47:17.866Z,38.97
2018-07-23T00:52:21.171Z,37.17
2018-07-23T00:57:24.179Z,34.00
2018-07-23T01:02:27.455Z,35.33
2018-07-23T01:07:30.712Z,32.90
2018-07-23T01:12:34.788Z,32.33
2018-07-23T01:17:38.034Z,32.63
2018-07-23T01:22:41.320Z,34.53
2018-07-23T01:27:44.579Z,33.73
2018-07-23T01:32:47.854Z,33.53
2018-07-23T01:37:51.145Z,33.90
2018-07-23T01:42:54.119Z,34.80
2018-07-23T01:47:57.834Z,36.83
2018-07-23T01:53:01.197Z,36.73
2018-07-23T01:58:04.482Z,36.17
2018-07-23T02:03:07.475Z,37.77
2018-07-23T02:08:10.791Z,35.53
2018-07-23T02:13:13.811Z,38.23
2018-07-23T02:18:17.138Z,35.73
2018-07-23T02:23:20.357Z,34.27
2018-07-23T02:28:23.629Z,37.90
2018-07-23T02:33:26.883Z,36.60
2018-07-23T02:38:30.155Z,34.87
2018-07-23T02:43:33.174Z,36.53
2018-07-23T02:48:36.451Z,35.03
2018-07-23T02:53:39.729Z,38.40
2018-07-23T02:58:43.402Z,33.17
2018-07-23T03:03:46.726Z,33.43
2018-07-23T03:08:50.151Z,34.67
2018-07-23T03:13:53.174Z,32.97
2018-07-23T03:18:56.473Z,33.17
2018-07-23T03:23:59.490Z,34.70
2018-07-23T03:29:02.783Z,34.33
2018-07-23T03:34:06.276Z,35.00
2018-07-23T03:39:10.620Z,34.47
2018-07-23T03:44:13.903Z,34.73
2018-07-23T03:49:17.192Z,34.73
2018-07-23T03:54:20.472Z,35.30
2018-07-23T03:59:23.866Z,32.43
2018-07-23T04:04:27.157Z,32.60
2018-07-23T04:09:30.163Z,32.97
2018-07-23T04:14:33.448Z,31.63
2018-07-23T04:19:36.742Z,31.37
2018-07-23T04:24:39.998Z,29.47
2018-07-23T04:29:43.041Z,29.10
2018-07-23T04:34:46.330Z,30.40
2018-07-23T04:39:49.335Z,30.37
2018-07-23T04:44:52.630Z,30.90
2018-07-23T04:49:55.641Z,30.83
2018-07-23T04:54:58.895Z,28.63
2018-07-23T05:00:02.163Z,27.97
2018-07-23T05:05:05.470Z,27.63
2018-07-23T05:10:08.755Z,27.40
2018-07-23T05:15:12.086Z,28.73
2018-07-23T05:20:15.387Z,27.60
2018-07-23T05:25:18.664Z,27.17
2018-07-23T05:30:21.859Z,27.47
2018-07-23T05:35:25.198Z,26.67
2018-07-23T05:40:28.500Z,26.63
2018-07-23T05:45:31.764Z,25.10
2018-07-23T05:50:35.037Z,25.10
2018-07-23T05:55:38.324Z,25.67
2018-07-23T06:00:41.608Z,25.33
2018-07-23T06:05:44.910Z,25.70
2018-07-23T06:10:47.946Z,25.07
2018-07-23T06:15:51.218Z,23.90
2018-07-23T06:20:54.507Z,24.70
2018-07-23T06:25:57.797Z,24.27
2018-07-23T06:31:01.120Z,23.80
2018-07-23T06:36:04.412Z,26.50
2018-07-23T06:41:07.785Z,23.37
2018-07-23T06:46:11.103Z,23.13
2018-07-23T06:51:14.367Z,22.37
2018-07-23T06:56:17.638Z,23.27
2018-07-23T07:01:20.928Z,23.53
2018-07-23T07:06:24.218Z,23.47
2018-07-23T07:11:27.489Z,24.97
2018-07-23T07:16:31.292Z,21.57
2018-07-23T07:21:34.592Z,20.53
2018-07-23T07:26:38.560Z,19.90
2018-07-23T07:31:41.608Z,19.37
2018-07-23T07:36:44.883Z,19.00
2018-07-23T07:41:48.171Z,16.40
2018-07-23T07:46:51.435Z,15.70
2018-07-23T07:51:54.447Z,17.70
2018-07-23T07:56:57.715Z,16.50
2018-07-23T08:02:01.277Z,15.90
2018-07-23T08:07:04.566Z,16.27
2018-07-23T08:12:07.827Z,16.07
2018-07-23T08:17:11.201Z,16.32
2018-07-23T08:22:14.225Z,17.80
2018-07-23T08:27:17.509Z,15.50
2018-07-23T08:32:20.583Z,16.77
2018-07-23T08:37:23.900Z,14.25
2018-07-23T08:42:27.368Z,12.93
2018-07-23T08:47:30.772Z,13.55
2018-07-23T08:52:34.356Z,13.70
2018-07-23T08:57:37.686Z,13.53
2018-07-23T09:02:40.826Z,13.50
2018-07-23T09:07:44.115Z,12.90
2018-07-23T09:12:47.431Z,13.10
2018-07-23T09:17:56.475Z,11.90
2018-07-23T09:23:01.040Z,12.82
2018-07-23T09:28:04.303Z,12.40
2018-07-23T09:33:07.571Z,12.88
2018-07-23T09:38:10.865Z,9.68
2018-07-23T09:43:14.316Z,8.83
2018-07-23T09:48:17.625Z,9.60
2018-07-23T09:53:20.903Z,10.50
2018-07-23T09:58:24.832Z,11.45
2018-07-23T10:03:28.201Z,12.13
2018-07-23T10:08:31.541Z,10.80
2018-07-23T10:13:34.848Z,11.50
2018-07-23T10:18:38.125Z,10.20
2018-07-23T10:23:41.746Z,9.48
2018-07-23T10:28:45.031Z,10.23
2018-07-23T10:33:48.699Z,9.68
2018-07-23T10:38:51.985Z,10.43
2018-07-23T10:43:55.249Z,10.98
2018-07-23T10:48:58.737Z,12.53
2018-07-23T10:54:01.875Z,11.22
2018-07-23T10:59:05.784Z,10.63
2018-07-23T11:04:10.407Z,10.20
2018-07-23T11:09:13.671Z,10.53
2018-07-23T11:14:17.157Z,10.78
2018-07-23T11:19:20.854Z,11.80
2018-07-23T11:24:25.267Z,9.45
2018-07-23T11:29:28.565Z,8.80
2018-07-23T11:34:32.054Z,9.88
2018-07-23T11:39:35.532Z,9.08
2018-07-23T11:44:38.763Z,9.35
2018-07-23T11:49:42.038Z,9.03
2018-07-23T11:54:45.320Z,9.00
2018-07-23T11:59:48.595Z,10.95
2018-07-23T12:04:51.860Z,8.98
2018-07-23T12:09:55.137Z,9.25
2018-07-23T12:14:58.535Z,9.78
2018-07-23T12:20:01.815Z,9.58
2018-07-23T12:25:05.139Z,9.35
2018-07-23T12:30:08.154Z,8.70
2018-07-23T12:35:11.430Z,8.28
2018-07-23T12:40:14.725Z,8.05
2018-07-23T12:45:18.196Z,8.25
2018-07-23T12:50:22.104Z,8.33
2018-07-23T12:55:25.626Z,8.43
2018-07-23T13:00:29.622Z,7.60
2018-07-23T13:05:34.338Z,7.30
2018-07-23T13:10:38.191Z,8.10
2018-07-23T13:15:41.855Z,9.13
2018-07-23T13:20:45.443Z,10.53
2018-07-23T13:25:48.700Z,9.85
2018-07-23T13:30:52.225Z,9.80
2018-07-23T13:35:55.834Z,14.93
2018-07-23T13:40:59.631Z,10.05
2018-07-23T13:46:03.924Z,9.75
2018-07-23T13:51:08.292Z,9.25
2018-07-23T13:56:11.345Z,9.43
2018-07-23T14:01:14.952Z,9.40
2018-07-23T14:06:18.242Z,8.40
2018-07-23T14:11:28.292Z,8.40
2018-07-23T14:16:33.992Z,10.75
2018-07-23T14:21:37.784Z,9.38
2018-07-23T14:26:42.232Z,10.00
2018-07-23T14:31:46.374Z,8.90
2018-07-23T14:36:50.684Z,7.93
2018-07-23T14:41:55.117Z,6.60
2018-07-23T14:46:59.566Z,6.43
2018-07-23T14:52:05.953Z,8.87
2018-07-23T14:57:11.455Z,3.80
2018-07-23T15:02:15.368Z,4.70
2018-07-23T15:07:19.548Z,4.63
2018-07-23T15:12:22.686Z,4.03
2018-07-23T15:17:25.972Z,5.13
2018-07-23T15:22:29.306Z,2.23
2018-07-23T15:27:35.455Z,4.17
2018-07-23T15:32:38.720Z,3.07
2018-07-23T15:37:43.904Z,2.80
2018-07-23T15:42:47.841Z,3.17
2018-07-23T15:47:52.269Z,3.03
2018-07-23T15:52:58.068Z,1.87
2018-07-23T15:58:01.441Z,2.33
2018-07-23T16:03:06.892Z,3.37
2018-07-23T16:08:11.121Z,1.90
2018-07-23T16:13:15.859Z,2.50
2018-07-23T16:18:20.867Z,2.27
2018-07-23T16:23:25.747Z,2.40
2018-07-23T16:28:30.314Z,2.27
2018-07-23T16:33:37.097Z,3.80
2018-07-23T16:38:42.946Z,3.00
2018-07-23T16:43:48.068Z,3.70
2018-07-23T16:48:53.160Z,3.83
2018-07-23T16:54:02.120Z,4.67
2018-07-23T16:59:08.258Z,4.83
2018-07-23T17:04:13.109Z,5.10
2018-07-23T17:09:18.954Z,5.93
2018-07-23T17:14:24.603Z,5.60
2018-07-23T17:19:28.865Z,5.97
2018-07-23T17:24:32.489Z,7.17
2018-07-23T17:29:36.552Z,9.37
2018-07-23T17:34:39.834Z,9.37
2018-07-23T17:39:42.858Z,9.93
2018-07-23T17:44:46.413Z,9.83
2018-07-23T17:49:49.676Z,10.80
2018-07-23T17:54:53.020Z,11.13
2018-07-23T17:59:56.298Z,10.77
2018-07-23T18:04:59.567Z,9.33
2018-07-23T18:10:03.163Z,10.60
2018-07-23T18:15:07.586Z,9.77
2018-07-23T18:20:10.634Z,12.10
2018-07-23T18:25:14.601Z,13.07
2018-07-23T18:30:17.716Z,12.03
2018-07-23T18:35:21.031Z,12.20
2018-07-23T18:40:24.073Z,11.57
2018-07-23T18:45:27.404Z,12.23
2018-07-23T18:50:30.700Z,12.03
2018-07-23T18:55:33.778Z,11.87
2018-07-23T19:00:37.071Z,12.37
2018-07-23T19:05:40.344Z,13.97
2018-07-23T19:10:43.608Z,14.10
2018-07-23T19:15:46.622Z,13.80
2018-07-23T19:20:49.613Z,16.40
2018-07-23T19:25:52.905Z,15.40
2018-07-23T19:30:56.183Z,14.87
2018-07-23T19:35:59.197Z,18.17
2018-07-23T19:41:02.546Z,16.90
2018-07-23T19:46:05.815Z,19.33
2018-07-23T19:51:10.352Z,19.10
2018-07-23T19:56:13.672Z,18.23
2018-07-23T20:01:16.680Z,19.60
2018-07-23T20:06:20.945Z,18.27
2018-07-23T20:11:24.820Z,18.13
2018-07-23T20:16:28.127Z,17.43
2018-07-23T20:21:31.418Z,16.73
2018-07-23T20:26:34.417Z,15.77
2018-07-23T20:31:37.716Z,16.27
2018-07-23T20:36:41.000Z,16.63
2018-07-23T20:41:44.116Z,17.33
2018-07-23T20:46:47.396Z,17.93
2018-07-23T20:51:50.435Z,16.73
2018-07-23T20:56:53.516Z,17.17
2018-07-23T21:01:56.511Z,18.40
2018-07-23T21:06:59.806Z,18.03
2018-07-23T21:12:03.108Z,17.13
2018-07-23T21:17:06.484Z,18.30
2018-07-23T21:22:09.998Z,18.47
2018-07-23T21:27:13.249Z,17.97
2018-07-23T21:32:16.829Z,17.43
2018-07-23T21:37:20.134Z,18.67
2018-07-23T21:42:23.418Z,17.70
2018-07-23T21:47:26.702Z,19.13
2018-07-23T21:52:30.439Z,20.00
2018-07-23T21:57:33.771Z,18.07
2018-07-23T22:02:37.046Z,17.73
2018-07-23T22:07:40.512Z,17.60
2018-07-23T22:12:43.791Z,19.00
2018-07-23T22:17:47.121Z,18.00
2018-07-23T22:22:50.404Z,21.77
2018-07-23T22:27:53.835Z,21.73
2018-07-23T22:32:57.122Z,22.10
2018-07-23T22:38:00.407Z,19.57
2018-07-23T22:43:03.872Z,19.93
2018-07-23T22:48:07.206Z,19.20
2018-07-23T22:53:10.496Z,21.30
2018-07-23T22:58:13.813Z,22.37
2018-07-23T23:03:17.092Z,20.20
2018-07-23T23:08:20.406Z,25.73
2018-07-23T23:13:23.710Z,49.93
2018-07-23T23:18:27.008Z,26.30
2018-07-23T23:23:30.309Z,18.30
2018-07-23T23:28:33.633Z,17.13
2018-07-23T23:33:36.911Z,20.00
2018-07-23T23:38:40.224Z,17.90
2018-07-23T23:43:43.507Z,59.37
2018-07-23T23:48:46.776Z,52.83
2018-07-23T23:53:50.072Z,39.60
2018-07-23T23:58:53.351Z,19.13
